createdAt,value
2022-12-27T00:02:18.407Z,33.42
2022-12-27T00:04:45.195Z,34.33
2022-12-27T00:07:12.309Z,35.38
2022-12-27T00:09:39.080Z,34.72
2022-12-27T00:12:06.060Z,34.42
2022-12-27T00:14:32.807Z,35.08
2022-12-27T00:16:59.520Z,34.90
2022-12-27T00:19:26.255Z,33.85
2022-12-27T00:21:53.023Z,34.38
2022-12-27T00:24:19.789Z,33.90
2022-12-27T00:26:46.445Z,33.28
2022-12-27T00:29:13.244Z,34.33
2022-12-27T00:31:40.158Z,33.33
2022-12-27T00:34:07.892Z,34.42
2022-12-27T00:36:35.421Z,34.17
2022-12-27T00:39:03.272Z,33.58
2022-12-27T00:41:30.310Z,33.97
2022-12-27T00:43:57.118Z,33.55
2022-12-27T00:46:23.873Z,33.40
2022-12-27T00:48:50.653Z,34.08
2022-12-27T00:51:23.327Z,32.88
2022-12-27T00:53:51.110Z,33.20
2022-12-27T00:56:21.513Z,32.85
2022-12-27T00:58:48.307Z,33.67
2022-12-27T01:01:18.735Z,33.42
2022-12-27T01:03:46.486Z,33.13
2022-12-27T01:06:16.064Z,32.25
2022-12-27T01:08:43.648Z,33.22
2022-12-27T01:11:11.106Z,31.17
2022-12-27T01:13:38.819Z,32.83
2022-12-27T01:16:15.010Z,33.63
2022-12-27T01:18:41.849Z,34.55
2022-12-27T01:21:10.334Z,34.92
2022-12-27T01:23:37.284Z,35.63
2022-12-27T01:26:06.550Z,34.60
2022-12-27T01:28:34.082Z,34.60
2022-12-27T01:31:12.151Z,32.47
2022-12-27T01:33:39.230Z,31.85
2022-12-27T01:36:13.107Z,33.58
2022-12-27T01:38:42.627Z,31.80
2022-12-27T01:41:52.182Z,31.52
2022-12-27T01:44:41.721Z,34.38
2022-12-27T01:47:35.679Z,30.55
2022-12-27T01:50:27.803Z,34.67
2022-12-27T01:53:25.465Z,33.20
2022-12-27T01:56:01.394Z,31.77
2022-12-27T01:58:51.748Z,30.83
2022-12-27T02:01:27.023Z,32.90
2022-12-27T02:04:07.229Z,33.22
2022-12-27T02:06:36.085Z,34.47
2022-12-27T02:09:14.475Z,35.03
2022-12-27T02:11:53.216Z,31.65
2022-12-27T02:14:28.072Z,34.15
2022-12-27T02:16:58.337Z,33.80
2022-12-27T02:19:42.485Z,32.15
2022-12-27T02:22:14.985Z,31.50
2022-12-27T02:25:06.353Z,31.15
2022-12-27T02:27:41.907Z,33.00
2022-12-27T02:30:10.480Z,33.95
2022-12-27T02:32:49.397Z,32.42
2022-12-27T02:35:23.447Z,33.55
2022-12-27T02:38:00.168Z,33.65
2022-12-27T02:40:46.349Z,33.47
2022-12-27T02:43:32.135Z,33.15
2022-12-27T02:46:28.826Z,32.40
2022-12-27T02:49:16.600Z,32.13
2022-12-27T02:52:27.785Z,31.52
2022-12-27T02:55:34.643Z,30.23
2022-12-27T03:00:52.357Z,31.25
2022-12-27T03:03:29.032Z,30.63
2022-12-27T03:06:36.588Z,30.55
2022-12-27T03:09:46.768Z,30.65
2022-12-27T03:12:34.733Z,30.80
2022-12-27T03:15:33.185Z,29.83
2022-12-27T03:18:09.347Z,30.38
2022-12-27T03:20:56.926Z,29.85
2022-12-27T03:23:44.214Z,30.55
2022-12-27T03:26:13.189Z,29.02
2022-12-27T03:29:00.442Z,29.50
2022-12-27T03:31:51.138Z,28.95
2022-12-27T03:34:35.846Z,28.60
2022-12-27T03:37:32.529Z,28.30
2022-12-27T03:40:06.483Z,28.15
2022-12-27T03:43:00.492Z,27.60
2022-12-27T03:46:03.469Z,26.50
2022-12-27T03:48:38.962Z,28.35
2022-12-27T03:51:07.724Z,28.10
2022-12-27T03:53:41.864Z,27.77
2022-12-27T03:56:09.432Z,27.63
2022-12-27T03:58:36.171Z,29.20
2022-12-27T04:01:03.319Z,28.98
2022-12-27T04:03:30.161Z,28.75
2022-12-27T04:05:57.031Z,27.65
2022-12-27T04:08:42.533Z,28.25
2022-12-27T04:11:28.140Z,28.58
2022-12-27T04:14:13.677Z,28.40
2022-12-27T04:16:59.257Z,28.92
2022-12-27T04:19:44.729Z,28.15
2022-12-27T04:22:30.125Z,30.05
2022-12-27T04:25:15.710Z,30.08
2022-12-27T04:28:01.138Z,29.50
2022-12-27T04:30:46.474Z,30.20
2022-12-27T04:33:31.871Z,30.23
2022-12-27T04:36:04.308Z,29.30
2022-12-27T04:38:32.875Z,29.42
2022-12-27T04:41:18.068Z,29.63
2022-12-27T04:44:03.495Z,30.07
2022-12-27T04:46:49.266Z,29.88
2022-12-27T04:49:44.443Z,29.45
2022-12-27T04:52:33.725Z,29.00
2022-12-27T04:55:06.930Z,28.67
2022-12-27T04:57:33.604Z,28.95
2022-12-27T05:00:18.881Z,30.13
2022-12-27T05:02:45.804Z,29.92
2022-12-27T05:05:12.685Z,31.02
2022-12-27T05:07:58.180Z,31.67
2022-12-27T05:10:43.511Z,30.40
2022-12-27T05:13:31.249Z,28.95
2022-12-27T05:15:58.228Z,29.48
2022-12-27T05:18:25.082Z,27.40
2022-12-27T05:20:51.942Z,29.20
2022-12-27T05:23:37.348Z,27.88
2022-12-27T05:26:04.600Z,28.23
2022-12-27T05:28:31.460Z,26.98
2022-12-27T05:31:05.630Z,27.10
2022-12-27T05:33:32.458Z,27.70
2022-12-27T05:36:00.345Z,27.60
2022-12-27T05:38:27.388Z,27.30
2022-12-27T05:41:01.371Z,25.67
2022-12-27T05:43:29.244Z,26.83
2022-12-27T05:45:56.276Z,26.67
2022-12-27T05:48:23.175Z,28.48
2022-12-27T05:50:50.006Z,27.80
2022-12-27T05:53:16.724Z,27.08
2022-12-27T05:55:43.590Z,26.23
2022-12-27T05:58:10.636Z,26.75
2022-12-27T06:00:37.497Z,26.83
2022-12-27T06:03:04.348Z,26.15
2022-12-27T06:05:31.069Z,26.05
2022-12-27T06:07:57.838Z,26.58
2022-12-27T06:10:24.656Z,24.77
2022-12-27T06:12:51.471Z,26.17
2022-12-27T06:15:18.346Z,25.85
2022-12-27T06:17:45.151Z,25.80
2022-12-27T06:20:11.835Z,25.08
2022-12-27T06:22:38.548Z,24.88
2022-12-27T06:25:07.898Z,24.92
2022-12-27T06:27:37.837Z,25.42
2022-12-27T06:30:05.061Z,27.35
2022-12-27T06:32:32.214Z,23.40
2022-12-27T06:34:58.982Z,24.00
2022-12-27T06:37:25.696Z,26.13
2022-12-27T06:39:52.431Z,25.17
2022-12-27T06:42:19.144Z,24.58
2022-12-27T06:44:45.806Z,24.65
2022-12-27T06:47:12.496Z,23.98
2022-12-27T06:49:39.538Z,22.85
2022-12-27T06:52:06.348Z,23.45
2022-12-27T06:54:33.208Z,24.13
2022-12-27T06:57:00.008Z,22.95
2022-12-27T06:59:26.738Z,24.15
2022-12-27T07:01:53.583Z,23.75
2022-12-27T07:04:20.810Z,22.00
2022-12-27T07:06:47.527Z,21.67
2022-12-27T07:09:14.263Z,22.05
2022-12-27T07:11:41.060Z,21.77
2022-12-27T07:14:10.655Z,22.65
2022-12-27T07:16:37.685Z,23.13
2022-12-27T07:19:04.703Z,22.67
2022-12-27T07:21:32.113Z,20.70
2022-12-27T07:23:59.006Z,21.90
2022-12-27T07:26:29.710Z,22.25
2022-12-27T07:28:58.136Z,22.25
2022-12-27T07:31:29.721Z,21.50
2022-12-27T07:33:57.862Z,22.25
2022-12-27T07:36:27.327Z,21.30
2022-12-27T07:38:54.089Z,20.60
2022-12-27T07:41:21.404Z,22.38
2022-12-27T07:43:48.310Z,23.33
2022-12-27T07:46:19.347Z,23.33
2022-12-27T07:48:47.359Z,22.55
2022-12-27T07:51:16.002Z,21.90
2022-12-27T07:53:43.293Z,21.42
2022-12-27T07:56:12.681Z,22.65
2022-12-27T07:58:44.417Z,22.60
2022-12-27T08:01:12.723Z,24.42
2022-12-27T08:03:40.845Z,22.98
2022-12-27T08:06:16.416Z,21.98
2022-12-27T08:11:11.035Z,21.15
2022-12-27T08:13:38.196Z,21.38
2022-12-27T08:16:05.493Z,21.48
2022-12-27T08:18:32.283Z,22.20
2022-12-27T08:20:59.069Z,21.08
2022-12-27T08:23:26.008Z,20.20
2022-12-27T08:25:52.995Z,21.60
2022-12-27T08:28:19.692Z,20.90
2022-12-27T08:30:46.878Z,20.75
2022-12-27T08:33:15.225Z,19.15
2022-12-27T08:35:54.384Z,19.92
2022-12-27T08:38:22.015Z,18.98
2022-12-27T08:40:48.701Z,18.30
2022-12-27T08:43:15.737Z,19.02
2022-12-27T08:45:42.844Z,19.20
2022-12-27T08:48:09.698Z,18.15
2022-12-27T08:50:36.772Z,18.45
2022-12-27T08:53:05.796Z,19.00
2022-12-27T08:55:33.303Z,18.45
2022-12-27T08:58:02.072Z,18.45
2022-12-27T09:00:30.093Z,17.42
2022-12-27T09:02:57.088Z,18.95
2022-12-27T09:05:25.516Z,19.27
2022-12-27T09:07:53.237Z,21.45
2022-12-27T09:10:21.017Z,21.38
2022-12-27T09:12:47.842Z,19.90
2022-12-27T09:15:15.022Z,21.35
2022-12-27T09:17:42.122Z,22.25
2022-12-27T09:20:09.750Z,22.80
2022-12-27T09:22:36.479Z,22.40
2022-12-27T09:25:03.392Z,21.15
2022-12-27T09:27:30.321Z,23.52
2022-12-27T09:29:57.070Z,21.90
2022-12-27T09:32:27.449Z,23.02
2022-12-27T09:34:54.733Z,22.95
2022-12-27T09:37:21.488Z,22.63
2022-12-27T09:39:48.183Z,22.95
2022-12-27T09:42:52.123Z,21.98
2022-12-27T09:45:34.778Z,23.05
2022-12-27T09:48:15.567Z,21.98
2022-12-27T09:50:55.438Z,21.67
2022-12-27T09:53:31.030Z,21.58
2022-12-27T09:58:51.264Z,21.40
2022-12-27T10:01:35.237Z,21.15
2022-12-27T10:04:03.505Z,20.60
2022-12-27T10:06:35.952Z,21.85
2022-12-27T10:09:33.732Z,21.30
2022-12-27T10:12:29.768Z,19.88
2022-12-27T10:15:31.424Z,20.38
2022-12-27T10:18:19.517Z,19.75
2022-12-27T10:21:19.280Z,19.60
2022-12-27T10:24:05.119Z,18.88
2022-12-27T10:26:32.918Z,19.20
2022-12-27T10:29:04.798Z,18.58
2022-12-27T10:31:32.519Z,19.55
2022-12-27T10:34:00.489Z,18.75
2022-12-27T10:36:30.716Z,19.10
2022-12-27T10:38:57.531Z,18.65
2022-12-27T10:41:54.232Z,19.98
2022-12-27T10:44:23.438Z,18.10
2022-12-27T10:46:53.595Z,19.70
2022-12-27T10:49:27.365Z,20.23
2022-12-27T10:51:57.517Z,19.52
2022-12-27T10:54:31.055Z,19.75
2022-12-27T10:57:18.121Z,19.17
2022-12-27T10:59:45.037Z,18.50
2022-12-27T11:02:19.670Z,17.92
2022-12-27T11:05:00.448Z,17.47
2022-12-27T11:07:33.085Z,17.77
2022-12-27T11:10:28.370Z,17.40
2022-12-27T11:13:01.766Z,18.33
2022-12-27T11:15:32.460Z,17.95
2022-12-27T11:18:02.303Z,17.10
2022-12-27T11:20:51.367Z,16.10
2022-12-27T11:23:20.785Z,16.02
2022-12-27T11:26:07.970Z,17.05
2022-12-27T11:28:42.121Z,16.40
2022-12-27T11:31:12.131Z,17.65
2022-12-27T11:33:57.068Z,16.75
2022-12-27T11:36:32.145Z,15.57
2022-12-27T11:39:00.604Z,15.43
2022-12-27T11:41:46.405Z,14.85
2022-12-27T11:44:29.575Z,15.38
2022-12-27T11:47:02.489Z,13.90
2022-12-27T11:49:35.856Z,12.57
2022-12-27T11:52:24.558Z,12.05
2022-12-27T11:54:53.959Z,11.95
2022-12-27T11:57:54.613Z,11.38
2022-12-27T12:00:28.685Z,11.50
2022-12-27T12:03:20.130Z,11.25
2022-12-27T12:06:17.658Z,11.85
2022-12-27T12:09:06.068Z,10.85
2022-12-27T12:11:42.033Z,10.57
2022-12-27T12:14:30.241Z,10.90
2022-12-27T12:17:15.729Z,10.32
2022-12-27T12:22:36.975Z,9.77
2022-12-27T12:28:17.458Z,8.75
2022-12-27T12:31:11.577Z,9.82
2022-12-27T12:33:50.040Z,10.25
2022-12-27T12:36:40.632Z,10.05
2022-12-27T12:39:27.874Z,9.13
2022-12-27T12:42:25.375Z,9.43
2022-12-27T12:45:24.132Z,9.43
2022-12-27T12:48:12.159Z,9.23
2022-12-27T12:51:09.259Z,8.02
2022-12-27T12:53:42.074Z,9.20
2022-12-27T12:56:46.148Z,8.75
2022-12-27T12:59:53.400Z,8.70
2022-12-27T13:02:45.121Z,8.85
2022-12-27T13:05:18.207Z,9.05
2022-12-27T13:08:10.961Z,8.32
2022-12-27T13:10:57.996Z,8.90
2022-12-27T13:14:00.243Z,8.25
2022-12-27T13:16:48.290Z,8.27
2022-12-27T13:19:27.285Z,7.50
2022-12-27T13:22:09.333Z,8.05
2022-12-27T13:25:07.039Z,8.50
2022-12-27T13:27:51.724Z,6.95
2022-12-27T13:30:43.253Z,6.90
2022-12-27T13:33:48.639Z,7.00
2022-12-27T13:36:38.863Z,7.17
2022-12-27T13:39:35.905Z,6.95
2022-12-27T13:42:23.665Z,6.78
2022-12-27T13:45:21.840Z,7.72
2022-12-27T13:47:57.193Z,7.00
2022-12-27T13:50:33.319Z,7.53
2022-12-27T13:53:18.784Z,7.95
2022-12-27T13:56:35.267Z,7.07
2022-12-27T13:59:22.768Z,7.20
2022-12-27T14:01:52.343Z,13.88
2022-12-27T14:05:11.376Z,19.17
2022-12-27T14:08:01.540Z,21.02
2022-12-27T14:10:37.122Z,22.10
2022-12-27T14:13:09.157Z,23.33
2022-12-27T14:15:54.018Z,24.92
2022-12-27T14:18:42.352Z,23.90
2022-12-27T14:21:37.836Z,23.60
2022-12-27T14:24:41.603Z,25.17
2022-12-27T14:27:27.306Z,24.90
2022-12-27T14:30:09.108Z,25.80
2022-12-27T14:33:03.521Z,26.13
2022-12-27T14:35:30.556Z,27.55
2022-12-27T14:38:34.172Z,28.17
2022-12-27T14:41:06.747Z,27.45
2022-12-27T14:43:52.128Z,28.92
2022-12-27T14:46:37.072Z,29.23
2022-12-27T14:49:03.799Z,28.40
2022-12-27T14:52:02.413Z,28.30
2022-12-27T14:54:55.603Z,28.40
2022-12-27T14:57:28.711Z,28.83
2022-12-27T15:00:20.879Z,29.15
2022-12-27T15:03:05.855Z,29.70
2022-12-27T15:06:00.783Z,31.88
2022-12-27T15:09:07.214Z,32.28
2022-12-27T15:11:53.757Z,32.25
2022-12-27T15:14:42.352Z,34.97
2022-12-27T15:17:18.001Z,35.00
2022-12-27T15:23:11.874Z,35.38
2022-12-27T15:25:51.062Z,33.83
2022-12-27T15:28:43.107Z,33.45
2022-12-27T15:31:12.954Z,35.00
2022-12-27T15:33:48.090Z,37.58
2022-12-27T15:36:17.556Z,35.13
2022-12-27T15:38:54.026Z,34.35
2022-12-27T15:41:54.866Z,35.95
2022-12-27T15:44:46.466Z,35.60
2022-12-27T15:47:31.929Z,34.40
2022-12-27T15:50:32.575Z,34.13
2022-12-27T15:53:16.228Z,35.45
2022-12-27T15:56:20.643Z,34.10
2022-12-27T15:59:25.800Z,33.67
2022-12-27T16:02:51.416Z,34.05
2022-12-27T16:05:22.161Z,36.67
2022-12-27T16:08:03.814Z,36.80
2022-12-27T16:10:33.409Z,36.90
2022-12-27T16:13:09.403Z,37.58
2022-12-27T16:15:47.972Z,38.10
2022-12-27T16:18:23.913Z,37.28
2022-12-27T16:21:23.670Z,41.40
2022-12-27T16:23:57.826Z,41.10
2022-12-27T16:26:30.757Z,39.28
2022-12-27T16:29:06.732Z,40.28
2022-12-27T16:31:40.470Z,40.33
2022-12-27T16:34:11.646Z,38.55
2022-12-27T16:36:46.002Z,39.00
2022-12-27T16:39:15.447Z,39.55
2022-12-27T16:41:54.381Z,37.80
2022-12-27T16:44:23.916Z,37.35
2022-12-27T16:46:57.164Z,36.95
2022-12-27T16:49:55.368Z,36.97
2022-12-27T16:52:53.143Z,37.55
2022-12-27T16:55:41.797Z,35.20
2022-12-27T16:58:32.372Z,38.10
2022-12-27T17:01:03.512Z,38.67
2022-12-27T17:03:41.888Z,38.92
2022-12-27T17:06:34.412Z,41.60
2022-12-27T17:09:21.859Z,40.75
2022-12-27T17:11:51.366Z,38.63
2022-12-27T17:14:31.780Z,39.47
2022-12-27T17:17:03.394Z,38.08
2022-12-27T17:19:38.880Z,37.75
2022-12-27T17:22:07.619Z,38.47
2022-12-27T17:24:34.453Z,38.25
2022-12-27T17:27:20.489Z,41.35
2022-12-27T17:32:54.410Z,40.28
2022-12-27T17:35:37.968Z,41.28
2022-12-27T17:38:10.538Z,43.90
2022-12-27T17:41:15.158Z,43.38
2022-12-27T17:44:01.073Z,41.08
2022-12-27T17:46:55.275Z,42.83
2022-12-27T17:49:30.912Z,42.50
2022-12-27T17:55:02.382Z,40.38
2022-12-27T17:57:47.783Z,40.35
2022-12-27T18:00:39.420Z,42.67
2022-12-27T18:03:12.894Z,43.22
2022-12-27T18:05:43.241Z,39.70
2022-12-27T18:08:30.715Z,40.08
2022-12-27T18:10:59.875Z,40.88
2022-12-27T18:13:30.888Z,41.63
2022-12-27T18:15:58.689Z,41.97
2022-12-27T18:18:34.445Z,41.08
2022-12-27T18:21:07.069Z,41.30
2022-12-27T18:23:42.691Z,38.78
2022-12-27T18:28:41.787Z,37.25
2022-12-27T18:31:32.700Z,37.03
2022-12-27T18:34:14.881Z,39.03
2022-12-27T18:36:52.019Z,38.42
2022-12-27T18:39:35.498Z,39.22
2022-12-27T18:42:06.069Z,39.17
2022-12-27T18:44:46.710Z,36.78
2022-12-27T18:47:28.129Z,37.17
2022-12-27T18:49:58.153Z,39.05
2022-12-27T18:52:38.389Z,40.38
2022-12-27T18:55:21.955Z,40.88
2022-12-27T18:57:48.777Z,40.60
2022-12-27T19:00:26.479Z,39.97
2022-12-27T19:02:55.467Z,40.28
2022-12-27T19:05:28.422Z,39.83
2022-12-27T19:08:16.987Z,40.80
2022-12-27T19:10:49.409Z,39.85
2022-12-27T19:13:26.848Z,38.80
2022-12-27T19:15:55.264Z,37.88
2022-12-27T19:18:36.465Z,39.40
2022-12-27T19:21:05.895Z,39.03
2022-12-27T19:23:38.326Z,41.22
2022-12-27T19:26:22.647Z,40.63
2022-12-27T19:29:06.795Z,39.58
2022-12-27T19:31:34.972Z,41.28
2022-12-27T19:34:13.320Z,39.30
2022-12-27T19:36:42.324Z,39.58
2022-12-27T19:39:20.193Z,36.70
2022-12-27T19:41:48.240Z,36.63
2022-12-27T19:44:15.428Z,36.70
2022-12-27T19:46:42.207Z,37.55
2022-12-27T19:49:41.494Z,33.35
2022-12-27T19:51:56.703Z,36.10
2022-12-27T19:54:24.898Z,35.83
2022-12-27T19:56:51.966Z,35.67
2022-12-27T19:59:21.450Z,38.00
2022-12-27T20:01:48.670Z,36.92
2022-12-27T20:04:16.535Z,36.58
2022-12-27T20:06:45.257Z,37.55
2022-12-27T20:09:17.501Z,37.15
2022-12-27T20:11:44.418Z,37.30
2022-12-27T20:14:11.422Z,36.30
2022-12-27T20:16:38.271Z,36.13
2022-12-27T20:19:04.987Z,37.85
2022-12-27T20:21:32.012Z,36.00
2022-12-27T20:23:58.769Z,36.17
2022-12-27T20:26:25.861Z,36.88
2022-12-27T20:28:53.449Z,34.55
2022-12-27T20:31:21.817Z,34.75
2022-12-27T20:33:53.237Z,34.72
2022-12-27T20:36:20.236Z,36.50
2022-12-27T20:38:47.021Z,36.03
2022-12-27T20:41:18.863Z,37.10
2022-12-27T20:43:45.736Z,36.10
2022-12-27T20:46:15.120Z,36.55
2022-12-27T20:48:43.535Z,36.30
2022-12-27T20:51:13.050Z,38.08
2022-12-27T20:53:39.967Z,37.53
2022-12-27T20:56:08.913Z,38.47
2022-12-27T20:58:35.987Z,37.78
2022-12-27T21:01:12.104Z,36.90
2022-12-27T21:03:39.783Z,40.08
2022-12-27T21:06:15.450Z,38.20
2022-12-27T21:11:24.686Z,38.20
2022-12-27T21:13:51.681Z,38.38
2022-12-27T21:16:27.043Z,39.72
2022-12-27T21:18:54.984Z,39.20
2022-12-27T21:21:27.672Z,38.90
2022-12-27T21:23:57.536Z,40.60
2022-12-27T21:26:29.747Z,40.08
2022-12-27T21:28:56.804Z,38.72
2022-12-27T21:31:24.107Z,38.88
2022-12-27T21:33:51.285Z,38.70
2022-12-27T21:36:22.867Z,39.50
2022-12-27T21:38:50.289Z,41.13
2022-12-27T21:41:19.483Z,41.25
2022-12-27T21:43:47.876Z,39.85
2022-12-27T21:46:22.129Z,39.00
2022-12-27T21:48:53.781Z,39.83
2022-12-27T21:51:20.557Z,41.35
2022-12-27T21:53:47.648Z,40.28
2022-12-27T21:56:16.496Z,39.65
2022-12-27T21:58:43.868Z,39.17
2022-12-27T22:01:15.642Z,39.65
2022-12-27T22:03:45.091Z,39.80
2022-12-27T22:06:21.013Z,38.42
2022-12-27T22:08:49.839Z,37.75
2022-12-27T22:11:17.793Z,37.63
2022-12-27T22:13:44.738Z,36.95
2022-12-27T22:16:23.504Z,36.90
2022-12-27T22:18:50.922Z,36.70
2022-12-27T22:21:20.990Z,38.30
2022-12-27T22:23:50.196Z,38.47
2022-12-27T22:26:20.459Z,40.25
2022-12-27T22:28:47.555Z,38.95
2022-12-27T22:31:17.187Z,38.92
2022-12-27T22:33:44.543Z,37.92
2022-12-27T22:36:19.880Z,39.10
2022-12-27T22:38:49.659Z,39.35
2022-12-27T22:41:21.631Z,36.63
2022-12-27T22:43:54.295Z,38.40
2022-12-27T22:46:22.031Z,40.53
2022-12-27T22:48:52.913Z,40.33
2022-12-27T22:51:22.506Z,39.85
2022-12-27T22:53:49.922Z,39.50
2022-12-27T22:56:19.699Z,39.88
2022-12-27T22:58:47.078Z,40.83
2022-12-27T23:01:23.648Z,39.58
2022-12-27T23:03:50.867Z,40.63
2022-12-27T23:06:17.790Z,41.85
2022-12-27T23:08:44.905Z,40.55
2022-12-27T23:11:18.976Z,38.80
2022-12-27T23:13:46.489Z,38.90
2022-12-27T23:16:13.307Z,38.83
2022-12-27T23:18:40.461Z,38.08
2022-12-27T23:21:21.092Z,37.90
2022-12-27T23:23:51.959Z,37.97
2022-12-27T23:26:22.986Z,39.05
2022-12-27T23:28:51.281Z,40.50
2022-12-27T23:31:20.891Z,40.47
2022-12-27T23:33:47.868Z,40.97
2022-12-27T23:36:15.144Z,41.33
2022-12-27T23:38:43.270Z,40.33
2022-12-27T23:41:15.502Z,40.22
2022-12-27T23:43:52.242Z,41.97
2022-12-27T23:46:31.673Z,41.00
2022-12-27T23:49:00.182Z,41.35
2022-12-27T23:51:28.156Z,41.28
2022-12-27T23:53:55.532Z,41.00
2022-12-27T23:56:25.342Z,41.53
2022-12-27T23:58:53.914Z,41.08
